Terminal Aerodrome Forecast
Issued by NWS Wilmington, OH

Current Version | Previous Version | Graphics & Text | Print | Product List | Glossary On
Versions: 1 2 3 4 5 6 7 8 9 10 11 12 13 14 15 16 17 18 19 20 21 22 23 24 25
000
FTUS41 KILN 241506 AAA
TAFCMH
TAF AMD
KCMH 241506Z 2415/2512 18007KT P6SM SCT060 BKN200
     FM241800 19011KT P6SM BKN045
     FM250000 18008KT P6SM VCTS BKN045CB
     FM250300 18006KT P6SM SCT050 BKN200=

USA.gov is the U.S. government's official web portal to all federal, state and local government web resources and services.